createdAt,value
2018-12-14T00:00:11.262Z,1011.27
2018-12-14T00:01:11.250Z,1011.26
2018-12-14T00:02:11.245Z,1011.28
2018-12-14T00:03:11.231Z,1011.30
2018-12-14T00:04:11.222Z,1011.28
2018-12-14T00:05:11.212Z,1011.25
2018-12-14T00:06:11.204Z,1011.25
2018-12-14T00:07:11.194Z,1011.29
2018-12-14T00:08:11.185Z,1011.29
2018-12-14T00:09:11.243Z,1011.28
2018-12-14T00:10:11.165Z,1011.27
2018-12-14T00:11:11.156Z,1011.31
2018-12-14T00:12:11.147Z,1011.29
2018-12-14T00:13:11.136Z,1011.29
2018-12-14T00:14:11.128Z,1011.30
2018-12-14T00:15:11.118Z,1011.27
2018-12-14T00:16:11.108Z,1011.32
2018-12-14T00:17:11.100Z,1011.29
2018-12-14T00:18:11.089Z,1011.30
2018-12-14T00:19:11.078Z,1011.30
2018-12-14T00:20:11.069Z,1011.32
2018-12-14T00:21:11.058Z,1011.34
2018-12-14T00:22:11.056Z,1011.33
2018-12-14T00:23:11.042Z,1011.35
2018-12-14T00:24:11.031Z,1011.41
2018-12-14T00:25:11.021Z,1011.37
2018-12-14T00:26:11.011Z,1011.37
2018-12-14T00:27:11.000Z,1011.37
2018-12-14T00:28:10.992Z,1011.37
2018-12-14T00:29:10.982Z,1011.34
2018-12-14T00:30:10.973Z,1011.38
2018-12-14T00:31:10.963Z,1011.36
2018-12-14T00:32:10.954Z,1011.39
2018-12-14T00:33:10.943Z,1011.43
2018-12-14T00:34:10.933Z,1011.45
2018-12-14T00:35:10.925Z,1011.46
2018-12-14T00:36:10.916Z,1011.49
2018-12-14T00:37:10.903Z,1011.51
2018-12-14T00:38:10.894Z,1011.51
2018-12-14T00:39:10.885Z,1011.53
2018-12-14T00:40:10.875Z,1011.55
2018-12-14T00:41:10.865Z,1011.50
2018-12-14T00:42:10.858Z,1011.50
2018-12-14T00:43:10.845Z,1011.51
2018-12-14T00:44:10.838Z,1011.48
2018-12-14T00:45:10.827Z,1011.51
2018-12-14T00:46:10.817Z,1011.47
2018-12-14T00:47:10.808Z,1011.49
2018-12-14T00:48:10.798Z,1011.50
2018-12-14T00:49:10.789Z,1011.47
2018-12-14T00:50:10.778Z,1011.51
2018-12-14T00:51:10.768Z,1011.50
2018-12-14T00:52:10.760Z,1011.53
2018-12-14T00:53:10.750Z,1011.56
2018-12-14T00:54:10.738Z,1011.56
2018-12-14T00:55:10.728Z,1011.52
2018-12-14T00:56:10.720Z,1011.55
2018-12-14T00:57:10.709Z,1011.57
2018-12-14T00:58:10.700Z,1011.56
2018-12-14T00:59:10.693Z,1011.57
2018-12-14T01:00:10.681Z,1011.53
2018-12-14T01:01:10.670Z,1011.58
2018-12-14T01:02:10.661Z,1011.57
2018-12-14T01:03:10.652Z,1011.58
2018-12-14T01:04:10.643Z,1011.58
2018-12-14T01:05:10.632Z,1011.55
2018-12-14T01:06:10.622Z,1011.61
2018-12-14T01:07:10.611Z,1011.63
2018-12-14T01:08:10.603Z,1011.58
2018-12-14T01:09:10.591Z,1011.59
2018-12-14T01:10:10.584Z,1011.62
2018-12-14T01:11:10.573Z,1011.66
2018-12-14T01:12:10.563Z,1011.67
2018-12-14T01:13:10.553Z,1011.62
2018-12-14T01:14:10.546Z,1011.70
2018-12-14T01:15:10.536Z,1011.66
2018-12-14T01:16:10.524Z,1011.68
2018-12-14T01:17:10.513Z,1011.66
2018-12-14T01:18:10.503Z,1011.68
2018-12-14T01:19:10.495Z,1011.71
2018-12-14T01:20:10.485Z,1011.74
2018-12-14T01:21:10.475Z,1011.68
2018-12-14T01:22:10.465Z,1011.67
2018-12-14T01:23:10.456Z,1011.69
2018-12-14T01:24:10.460Z,1011.68
2018-12-14T01:25:10.435Z,1011.70
2018-12-14T01:26:10.426Z,1011.66
2018-12-14T01:27:10.423Z,1011.69
2018-12-14T01:28:10.410Z,1011.69
2018-12-14T01:29:10.395Z,1011.70
2018-12-14T01:30:10.387Z,1011.74
2018-12-14T01:31:10.377Z,1011.73
2018-12-14T01:32:10.368Z,1011.72
2018-12-14T01:33:10.357Z,1011.77
2018-12-14T01:34:10.347Z,1011.75
2018-12-14T01:35:10.337Z,1011.76
2018-12-14T01:36:10.328Z,1011.73
2018-12-14T01:37:10.317Z,1011.70
2018-12-14T01:38:10.310Z,1011.70
2018-12-14T01:39:10.298Z,1011.72
2018-12-14T01:40:10.288Z,1011.72
2018-12-14T01:41:10.277Z,1011.70
2018-12-14T01:42:10.268Z,1011.69
2018-12-14T01:43:10.315Z,1011.72
2018-12-14T01:44:10.251Z,1011.69
2018-12-14T01:45:10.239Z,1011.68
2018-12-14T01:46:10.229Z,1011.72
2018-12-14T01:47:10.220Z,1011.77
2018-12-14T01:48:10.211Z,1011.64
2018-12-14T01:49:10.200Z,1011.68
2018-12-14T01:50:10.189Z,1011.65
2018-12-14T01:51:10.179Z,1011.63
2018-12-14T01:52:10.170Z,1011.66
2018-12-14T01:53:10.161Z,1011.64
2018-12-14T01:54:10.151Z,1011.69
2018-12-14T01:55:10.140Z,1011.68
2018-12-14T01:56:10.130Z,1011.67
2018-12-14T01:57:10.120Z,1011.65
2018-12-14T01:58:10.111Z,1011.70
2018-12-14T01:59:10.101Z,1011.61
2018-12-14T02:00:10.092Z,1011.65
2018-12-14T02:01:10.082Z,1011.61
2018-12-14T02:02:10.074Z,1011.62
2018-12-14T02:03:10.062Z,1011.64
2018-12-14T02:04:10.052Z,1011.65
2018-12-14T02:05:10.043Z,1011.57
2018-12-14T02:06:10.031Z,1011.60
2018-12-14T02:07:10.022Z,1011.61
2018-12-14T02:08:10.014Z,1011.59
2018-12-14T02:09:10.001Z,1011.56
2018-12-14T02:10:09.992Z,1011.57
2018-12-14T02:11:09.983Z,1011.60
2018-12-14T02:12:11.456Z,1011.60
2018-12-14T02:13:09.961Z,1011.60
2018-12-14T02:14:09.952Z,1011.57
2018-12-14T02:15:09.943Z,1011.56
2018-12-14T02:16:09.933Z,1011.58
2018-12-14T02:17:09.922Z,1011.56
2018-12-14T02:18:09.912Z,1011.54
2018-12-14T02:19:09.902Z,1011.56
2018-12-14T02:20:09.892Z,1011.59
2018-12-14T02:21:09.884Z,1011.55
2018-12-14T02:22:09.873Z,1011.54
2018-12-14T02:23:09.866Z,1011.54
2018-12-14T02:24:09.854Z,1011.55
2018-12-14T02:25:09.844Z,1011.54
2018-12-14T02:26:09.833Z,1011.55
2018-12-14T02:27:09.825Z,1011.54
2018-12-14T02:28:09.814Z,1011.53
2018-12-14T02:29:09.803Z,1011.58
2018-12-14T02:30:09.796Z,1011.59
2018-12-14T02:31:09.786Z,1011.58
2018-12-14T02:32:09.777Z,1011.53
2018-12-14T02:33:09.765Z,1011.53
2018-12-14T02:34:09.755Z,1011.52
2018-12-14T02:35:09.745Z,1011.54
2018-12-14T02:36:09.735Z,1011.55
2018-12-14T02:37:09.727Z,1011.52
2018-12-14T02:38:09.715Z,1011.53
2018-12-14T02:39:09.708Z,1011.49
2018-12-14T02:40:09.702Z,1011.55
2018-12-14T02:41:09.686Z,1011.56
2018-12-14T02:42:09.678Z,1011.57
2018-12-14T02:43:09.664Z,1011.56
2018-12-14T02:44:09.655Z,1011.58
2018-12-14T02:45:09.644Z,1011.56
2018-12-14T02:46:09.637Z,1011.53
2018-12-14T02:47:09.627Z,1011.49
2018-12-14T02:48:09.625Z,1011.47
2018-12-14T02:49:09.605Z,1011.50
2018-12-14T02:50:09.598Z,1011.51
2018-12-14T02:51:09.587Z,1011.47
2018-12-14T02:52:09.575Z,1011.49
2018-12-14T02:53:09.577Z,1011.51
2018-12-14T02:54:09.556Z,1011.47
2018-12-14T02:55:09.546Z,1011.51
2018-12-14T02:56:09.537Z,1011.47
2018-12-14T02:57:09.526Z,1011.48
2018-12-14T02:58:09.516Z,1011.46
2018-12-14T02:59:09.505Z,1011.47
2018-12-14T03:00:09.500Z,1011.48
2018-12-14T03:01:09.487Z,1011.42
2018-12-14T03:02:09.475Z,1011.44
2018-12-14T03:03:09.466Z,1011.42
2018-12-14T03:04:09.456Z,1011.42
2018-12-14T03:05:09.448Z,1011.42
2018-12-14T03:06:09.436Z,1011.45
2018-12-14T03:07:09.427Z,1011.44
2018-12-14T03:08:09.417Z,1011.45
2018-12-14T03:09:09.413Z,1011.40
2018-12-14T03:10:09.396Z,1011.37
2018-12-14T03:11:09.386Z,1011.41
2018-12-14T03:12:09.377Z,1011.37
2018-12-14T03:13:09.372Z,1011.37
2018-12-14T03:14:09.358Z,1011.38
2018-12-14T03:15:09.349Z,1011.36
2018-12-14T03:16:09.338Z,1011.34
2018-12-14T03:17:09.326Z,1011.27
2018-12-14T03:18:09.319Z,1011.32
2018-12-14T03:19:09.307Z,1011.36
2018-12-14T03:20:09.298Z,1011.31
2018-12-14T03:21:09.286Z,1011.30
2018-12-14T03:22:09.276Z,1011.33
2018-12-14T03:23:09.267Z,1011.36
2018-12-14T03:24:09.260Z,1011.36
2018-12-14T03:25:09.248Z,1011.34
2018-12-14T03:26:09.240Z,1011.34
2018-12-14T03:27:09.227Z,1011.30
2018-12-14T03:28:09.218Z,1011.36
2018-12-14T03:29:09.208Z,1011.30
2018-12-14T03:30:09.200Z,1011.28
2018-12-14T03:31:09.189Z,1011.33
2018-12-14T03:32:09.188Z,1011.31
2018-12-14T03:33:09.169Z,1011.28
2018-12-14T03:34:09.159Z,1011.30
2018-12-14T03:35:09.149Z,1011.29
2018-12-14T03:36:09.143Z,1011.30
2018-12-14T03:37:09.129Z,1011.30
2018-12-14T03:38:09.121Z,1011.29
2018-12-14T03:39:09.109Z,1011.21
2018-12-14T03:40:09.100Z,1011.28
2018-12-14T03:41:09.090Z,1011.27
2018-12-14T03:42:09.080Z,1011.26
2018-12-14T03:43:09.089Z,1011.32
2018-12-14T03:44:09.061Z,1011.27
2018-12-14T03:45:09.049Z,1011.25
2018-12-14T03:46:09.041Z,1011.26
2018-12-14T03:47:09.031Z,1011.30
2018-12-14T03:48:09.020Z,1011.30
2018-12-14T03:49:09.011Z,1011.24
2018-12-14T03:50:09.000Z,1011.29
2018-12-14T03:51:08.994Z,1011.33
2018-12-14T03:52:08.983Z,1011.33
2018-12-14T03:53:08.973Z,1011.34
2018-12-14T03:54:08.962Z,1011.32
2018-12-14T03:55:08.951Z,1011.37
2018-12-14T03:56:08.943Z,1011.36
2018-12-14T03:57:08.933Z,1011.35
2018-12-14T03:58:08.923Z,1011.38
2018-12-14T03:59:08.912Z,1011.37
2018-12-14T04:00:09.056Z,1011.35
2018-12-14T04:01:08.894Z,1011.37
2018-12-14T04:02:08.882Z,1011.32
2018-12-14T04:03:08.875Z,1011.35
2018-12-14T04:04:08.866Z,1011.36
2018-12-14T04:05:08.853Z,1011.35
2018-12-14T04:06:08.843Z,1011.34
2018-12-14T04:07:08.837Z,1011.28
2018-12-14T04:08:08.826Z,1011.34
2018-12-14T04:09:08.814Z,1011.33
2018-12-14T04:10:08.806Z,1011.40
2018-12-14T04:11:08.840Z,1011.33
2018-12-14T04:12:08.784Z,1011.32
2018-12-14T04:13:08.781Z,1011.32
2018-12-14T04:14:08.766Z,1011.33
2018-12-14T04:15:08.757Z,1011.30
2018-12-14T04:16:08.748Z,1011.31
2018-12-14T04:17:08.734Z,1011.30
2018-12-14T04:18:08.728Z,1011.23
2018-12-14T04:19:08.718Z,1011.27
2018-12-14T04:20:08.706Z,1011.30
2018-12-14T04:21:08.696Z,1011.29
2018-12-14T04:22:08.687Z,1011.27
2018-12-14T04:23:08.677Z,1011.29
2018-12-14T04:24:08.671Z,1011.30
2018-12-14T04:25:08.658Z,1011.27
2018-12-14T04:26:08.647Z,1011.29
2018-12-14T04:27:08.651Z,1011.26
2018-12-14T04:28:08.629Z,1011.30
2018-12-14T04:29:08.618Z,1011.29
2018-12-14T04:30:08.608Z,1011.25
2018-12-14T04:31:08.599Z,1011.26
2018-12-14T04:32:08.589Z,1011.33
2018-12-14T04:33:08.578Z,1011.31
2018-12-14T04:34:08.569Z,1011.30
2018-12-14T04:35:08.560Z,1011.31
2018-12-14T04:36:08.558Z,1011.33
2018-12-14T04:37:08.540Z,1011.34
2018-12-14T04:38:08.529Z,1011.34
2018-12-14T04:39:08.523Z,1011.38
2018-12-14T04:40:08.512Z,1011.35
2018-12-14T04:41:08.513Z,1011.37
2018-12-14T04:42:08.494Z,1011.37
2018-12-14T04:43:08.482Z,1011.34
2018-12-14T04:44:08.473Z,1011.33
2018-12-14T04:45:08.462Z,1011.35
2018-12-14T04:46:08.456Z,1011.34
2018-12-14T04:47:08.443Z,1011.35
2018-12-14T04:48:08.434Z,1011.37
2018-12-14T04:49:08.426Z,1011.40
2018-12-14T04:50:08.416Z,1011.39
2018-12-14T04:51:08.408Z,1011.42
2018-12-14T04:52:08.397Z,1011.35
2018-12-14T04:53:08.384Z,1011.38
2018-12-14T04:54:08.376Z,1011.42
2018-12-14T04:55:08.367Z,1011.39
2018-12-14T04:56:08.357Z,1011.43
2018-12-14T04:57:08.346Z,1011.39
2018-12-14T04:58:08.338Z,1011.40
2018-12-14T04:59:08.327Z,1011.43
2018-12-14T05:00:08.318Z,1011.39
2018-12-14T05:01:08.314Z,1011.37
2018-12-14T05:02:08.299Z,1011.37
2018-12-14T05:03:08.350Z,1011.37
2018-12-14T05:04:08.280Z,1011.38
2018-12-14T05:05:08.270Z,1011.39
2018-12-14T05:06:08.262Z,1011.39
2018-12-14T05:07:08.252Z,1011.38
2018-12-14T05:08:08.243Z,1011.37
2018-12-14T05:09:08.230Z,1011.36
2018-12-14T05:10:08.223Z,1011.35
2018-12-14T05:11:08.211Z,1011.36
2018-12-14T05:12:08.202Z,1011.36
2018-12-14T05:13:08.194Z,1011.44
2018-12-14T05:14:08.183Z,1011.39
2018-12-14T05:15:08.175Z,1011.41
2018-12-14T05:16:08.166Z,1011.35
2018-12-14T05:17:08.155Z,1011.37
2018-12-14T05:18:08.144Z,1011.35
2018-12-14T05:19:08.136Z,1011.37
2018-12-14T05:20:08.126Z,1011.39
2018-12-14T05:21:08.117Z,1011.41
2018-12-14T05:22:08.106Z,1011.41
2018-12-14T05:23:08.095Z,1011.45
2018-12-14T05:24:08.088Z,1011.40
2018-12-14T05:25:08.076Z,1011.41
2018-12-14T05:26:08.067Z,1011.41
2018-12-14T05:27:08.057Z,1011.49
2018-12-14T05:28:08.047Z,1011.46
2018-12-14T05:29:08.038Z,1011.47
2018-12-14T05:30:08.027Z,1011.45
2018-12-14T05:31:08.017Z,1011.42
2018-12-14T05:32:08.009Z,1011.43
2018-12-14T05:33:07.997Z,1011.46
2018-12-14T05:34:07.988Z,1011.47
2018-12-14T05:35:07.980Z,1011.45
2018-12-14T05:36:07.969Z,1011.46
2018-12-14T05:37:07.958Z,1011.46
2018-12-14T05:38:07.949Z,1011.46
2018-12-14T05:39:07.940Z,1011.46
2018-12-14T05:40:07.930Z,1011.46
2018-12-14T05:41:07.920Z,1011.48
2018-12-14T05:42:07.911Z,1011.50
2018-12-14T05:43:07.901Z,1011.50
2018-12-14T05:44:07.892Z,1011.55
2018-12-14T05:45:07.882Z,1011.52
2018-12-14T05:46:07.870Z,1011.53
2018-12-14T05:47:07.863Z,1011.53
2018-12-14T05:48:07.851Z,1011.52
2018-12-14T05:49:07.841Z,1011.50
2018-12-14T05:50:07.831Z,1011.47
2018-12-14T05:51:07.821Z,1011.49
2018-12-14T05:52:07.812Z,1011.53
2018-12-14T05:53:07.800Z,1011.47
2018-12-14T05:54:07.790Z,1011.49
2018-12-14T05:55:07.781Z,1011.49
2018-12-14T05:56:07.772Z,1011.52
2018-12-14T05:57:07.764Z,1011.53
2018-12-14T05:58:07.752Z,1011.54
2018-12-14T05:59:07.741Z,1011.54
2018-12-14T06:00:07.731Z,1011.57
2018-12-14T06:01:07.721Z,1011.56
2018-12-14T06:02:07.714Z,1011.58
2018-12-14T06:03:07.702Z,1011.56
2018-12-14T06:04:07.692Z,1011.55
2018-12-14T06:05:07.685Z,1011.56
2018-12-14T06:06:07.672Z,1011.56
2018-12-14T06:07:07.662Z,1011.58
2018-12-14T06:08:07.651Z,1011.59
2018-12-14T06:09:07.642Z,1011.57
2018-12-14T06:10:07.630Z,1011.59
2018-12-14T06:11:07.621Z,1011.60
2018-12-14T06:12:07.614Z,1011.58
2018-12-14T06:13:09.165Z,1011.61
2018-12-14T06:14:07.591Z,1011.59
2018-12-14T06:15:07.582Z,1011.60
2018-12-14T06:16:07.572Z,1011.64
2018-12-14T06:17:07.561Z,1011.64
2018-12-14T06:18:07.551Z,1011.66
2018-12-14T06:19:07.640Z,1011.65
2018-12-14T06:20:07.532Z,1011.73
2018-12-14T06:21:07.521Z,1011.71
2018-12-14T06:22:07.510Z,1011.77
2018-12-14T06:23:07.501Z,1011.73
2018-12-14T06:24:07.491Z,1011.75
2018-12-14T06:25:07.481Z,1011.76
2018-12-14T06:26:07.469Z,1011.74
2018-12-14T06:27:07.460Z,1011.77
2018-12-14T06:28:07.450Z,1011.78
2018-12-14T06:29:07.466Z,1011.76
2018-12-14T06:30:07.429Z,1011.74
2018-12-14T06:31:07.420Z,1011.72
2018-12-14T06:32:07.410Z,1011.74
2018-12-14T06:33:07.398Z,1011.74
2018-12-14T06:34:07.390Z,1011.69
2018-12-14T06:35:07.379Z,1011.73
2018-12-14T06:36:07.369Z,1011.72
2018-12-14T06:37:07.358Z,1011.74
2018-12-14T06:38:07.351Z,1011.72
2018-12-14T06:39:07.337Z,1011.71
2018-12-14T06:40:07.328Z,1011.78
2018-12-14T06:41:07.317Z,1011.80
2018-12-14T06:42:07.307Z,1011.78
2018-12-14T06:43:07.297Z,1011.79
2018-12-14T06:44:07.290Z,1011.79
2018-12-14T06:45:07.276Z,1011.82
2018-12-14T06:46:07.270Z,1011.85
2018-12-14T06:47:07.261Z,1011.84
2018-12-14T06:48:07.249Z,1011.88
2018-12-14T06:49:07.237Z,1011.86
2018-12-14T06:50:07.226Z,1011.91
2018-12-14T06:51:07.216Z,1011.90
2018-12-14T06:52:07.206Z,1011.90
2018-12-14T06:53:07.230Z,1011.95
2018-12-14T06:54:07.186Z,1011.87
2018-12-14T06:55:07.175Z,1011.94
2018-12-14T06:56:07.164Z,1011.92
2018-12-14T06:57:07.153Z,1011.97
2018-12-14T06:58:07.144Z,1012.01
2018-12-14T06:59:07.136Z,1012.01
2018-12-14T07:00:07.125Z,1011.98
2018-12-14T07:01:07.114Z,1011.99
2018-12-14T07:02:07.104Z,1012.00
2018-12-14T07:03:07.093Z,1011.99
2018-12-14T07:04:07.084Z,1012.10
2018-12-14T07:05:07.072Z,1012.10
2018-12-14T07:06:07.061Z,1012.09
2018-12-14T07:07:07.052Z,1012.13
2018-12-14T07:08:07.042Z,1012.09
2018-12-14T07:09:07.031Z,1012.10
2018-12-14T07:10:07.021Z,1012.11
2018-12-14T07:11:07.011Z,1012.06
2018-12-14T07:12:07.001Z,1012.05
2018-12-14T07:13:06.991Z,1012.09
2018-12-14T07:14:06.982Z,1012.13
2018-12-14T07:15:06.970Z,1012.15
2018-12-14T07:16:06.959Z,1012.13
2018-12-14T07:17:06.950Z,1012.20
2018-12-14T07:18:06.939Z,1012.14
2018-12-14T07:19:06.929Z,1012.14
2018-12-14T07:20:06.919Z,1012.19
2018-12-14T07:21:06.908Z,1012.22
2018-12-14T07:22:06.898Z,1012.25
2018-12-14T07:23:06.887Z,1012.17
2018-12-14T07:24:06.887Z,1012.18
2018-12-14T07:25:06.870Z,1012.28
2018-12-14T07:26:06.855Z,1012.24
2018-12-14T07:27:06.847Z,1012.23
2018-12-14T07:28:06.837Z,1012.26
2018-12-14T07:29:06.827Z,1012.26
2018-12-14T07:30:06.814Z,1012.27
2018-12-14T07:31:06.806Z,1012.33
2018-12-14T07:32:06.794Z,1012.36
2018-12-14T07:33:06.785Z,1012.37
2018-12-14T07:34:06.775Z,1012.39
2018-12-14T07:35:06.763Z,1012.39
2018-12-14T07:36:06.755Z,1012.42
2018-12-14T07:37:06.744Z,1012.48
2018-12-14T07:38:06.733Z,1012.45
2018-12-14T07:39:06.724Z,1012.52
2018-12-14T07:40:06.717Z,1012.50
2018-12-14T07:41:06.702Z,1012.50
2018-12-14T07:42:06.692Z,1012.52
2018-12-14T07:43:06.683Z,1012.50
2018-12-14T07:44:06.674Z,1012.50
2018-12-14T07:45:06.662Z,1012.44
2018-12-14T07:46:06.652Z,1012.50
2018-12-14T07:47:11.621Z,1012.51
2018-12-14T07:48:06.632Z,1012.56
2018-12-14T07:49:06.625Z,1012.55
2018-12-14T07:50:06.612Z,1012.60
2018-12-14T07:51:06.601Z,1012.57
2018-12-14T07:52:06.591Z,1012.62
2018-12-14T07:53:09.127Z,1012.61
2018-12-14T07:54:06.571Z,1012.58
2018-12-14T07:55:06.563Z,1012.60
2018-12-14T07:56:06.558Z,1012.60
2018-12-14T07:57:06.540Z,1012.63
2018-12-14T07:58:06.531Z,1012.60
2018-12-14T07:59:06.521Z,1012.66
2018-12-14T08:00:06.511Z,1012.65
2018-12-14T08:01:06.501Z,1012.69
2018-12-14T08:02:06.489Z,1012.69
2018-12-14T08:03:06.480Z,1012.70
2018-12-14T08:04:06.470Z,1012.69
2018-12-14T08:05:06.458Z,1012.74
2018-12-14T08:06:06.451Z,1012.74
2018-12-14T08:07:06.440Z,1012.72
2018-12-14T08:08:06.431Z,1012.76
2018-12-14T08:09:06.422Z,1012.75
2018-12-14T08:10:06.410Z,1012.80
2018-12-14T08:11:06.399Z,1012.78
2018-12-14T08:12:06.391Z,1012.82
2018-12-14T08:13:06.381Z,1012.75
2018-12-14T08:14:06.369Z,1012.79
2018-12-14T08:15:11.348Z,1012.78
2018-12-14T08:16:06.352Z,1012.82
2018-12-14T08:17:06.339Z,1012.78
2018-12-14T08:18:06.331Z,1012.82
2018-12-14T08:19:06.433Z,1012.77
2018-12-14T08:20:06.311Z,1012.81
2018-12-14T08:21:06.300Z,1012.82
2018-12-14T08:22:06.290Z,1012.83
2018-12-14T08:23:06.280Z,1012.84
2018-12-14T08:24:06.270Z,1012.84
2018-12-14T08:25:06.260Z,1012.87
2018-12-14T08:26:06.252Z,1012.86
2018-12-14T08:27:06.240Z,1012.86
2018-12-14T08:28:06.230Z,1012.86
2018-12-14T08:29:06.220Z,1012.91
2018-12-14T08:30:06.216Z,1012.93
2018-12-14T08:31:06.203Z,1012.93
2018-12-14T08:32:06.191Z,1012.88
2018-12-14T08:33:06.192Z,1012.90
2018-12-14T08:34:06.171Z,1012.91
2018-12-14T08:35:06.161Z,1012.95
2018-12-14T08:36:06.155Z,1012.91
2018-12-14T08:37:06.141Z,1012.92
2018-12-14T08:38:06.131Z,1012.99
2018-12-14T08:39:06.121Z,1012.94
2018-12-14T08:40:06.111Z,1012.98
2018-12-14T08:41:06.103Z,1012.96
2018-12-14T08:42:06.092Z,1012.99
2018-12-14T08:43:06.083Z,1013.01
2018-12-14T08:44:06.072Z,1013.00
2018-12-14T08:45:06.060Z,1013.01
2018-12-14T08:46:06.052Z,1012.97
2018-12-14T08:47:06.042Z,1013.03
2018-12-14T08:48:06.032Z,1013.05
2018-12-14T08:49:06.022Z,1013.07
2018-12-14T08:50:06.011Z,1013.05
2018-12-14T08:51:06.003Z,1013.04
2018-12-14T08:52:05.992Z,1013.06
2018-12-14T08:53:05.980Z,1013.00
2018-12-14T08:54:05.973Z,1013.08
2018-12-14T08:55:05.962Z,1013.08
2018-12-14T08:56:05.951Z,1013.10
2018-12-14T08:57:05.942Z,1013.11
2018-12-14T08:58:05.931Z,1013.10
2018-12-14T08:59:05.922Z,1013.20
2018-12-14T09:00:05.912Z,1013.17
2018-12-14T09:01:05.901Z,1013.18
2018-12-14T09:02:05.891Z,1013.18
2018-12-14T09:03:05.882Z,1013.17
2018-12-14T09:04:05.873Z,1013.24
2018-12-14T09:05:05.862Z,1013.25
2018-12-14T09:06:05.851Z,1013.22
2018-12-14T09:07:05.842Z,1013.25
2018-12-14T09:08:05.833Z,1013.28
2018-12-14T09:09:05.822Z,1013.26
2018-12-14T09:10:05.817Z,1013.29
2018-12-14T09:11:05.803Z,1013.33
2018-12-14T09:12:05.793Z,1013.34
2018-12-14T09:13:05.781Z,1013.32
2018-12-14T09:14:05.773Z,1013.32
2018-12-14T09:15:05.762Z,1013.32
2018-12-14T09:16:05.752Z,1013.34
2018-12-14T09:17:05.743Z,1013.31
2018-12-14T09:18:05.734Z,1013.36
2018-12-14T09:19:05.723Z,1013.35
2018-12-14T09:20:05.715Z,1013.37
2018-12-14T09:21:05.704Z,1013.35
2018-12-14T09:22:05.696Z,1013.36
2018-12-14T09:23:05.685Z,1013.36
2018-12-14T09:24:05.674Z,1013.38
2018-12-14T09:25:05.662Z,1013.35
2018-12-14T09:26:05.656Z,1013.38
2018-12-14T09:27:05.646Z,1013.38
2018-12-14T09:28:05.634Z,1013.36
2018-12-14T09:29:05.625Z,1013.32
2018-12-14T09:30:05.615Z,1013.37
2018-12-14T09:31:05.608Z,1013.36
2018-12-14T09:32:05.598Z,1013.37
2018-12-14T09:33:05.591Z,1013.32
2018-12-14T09:34:05.580Z,1013.36
2018-12-14T09:35:05.568Z,1013.33
2018-12-14T09:36:05.557Z,1013.37
2018-12-14T09:37:05.548Z,1013.36
2018-12-14T09:38:05.538Z,1013.42
2018-12-14T09:39:05.529Z,1013.38
2018-12-14T09:40:05.520Z,1013.40
2018-12-14T09:41:05.512Z,1013.36
2018-12-14T09:42:05.501Z,1013.35
2018-12-14T09:43:05.492Z,1013.39
2018-12-14T09:44:05.490Z,1013.37
2018-12-14T09:45:05.472Z,1013.36
2018-12-14T09:46:05.516Z,1013.32
2018-12-14T09:47:05.455Z,1013.35
2018-12-14T09:48:05.446Z,1013.38
2018-12-14T09:49:05.438Z,1013.39
2018-12-14T09:50:05.426Z,1013.45
2018-12-14T09:51:05.419Z,1013.55
2018-12-14T09:52:05.411Z,1013.53
2018-12-14T09:53:05.400Z,1013.47
2018-12-14T09:54:05.390Z,1013.56
2018-12-14T09:55:05.381Z,1013.54
2018-12-14T09:56:05.370Z,1013.54
2018-12-14T09:57:05.364Z,1013.59
2018-12-14T09:58:05.352Z,1013.68
2018-12-14T09:59:05.344Z,1013.58
2018-12-14T10:00:05.337Z,1013.52
2018-12-14T10:01:05.327Z,1013.48
2018-12-14T10:02:05.318Z,1013.53
2018-12-14T10:03:05.308Z,1013.46
2018-12-14T10:04:05.298Z,1013.45
2018-12-14T10:05:05.289Z,1013.49
2018-12-14T10:06:05.280Z,1013.49
2018-12-14T10:07:05.271Z,1013.53
2018-12-14T10:08:05.262Z,1013.54
2018-12-14T10:09:05.253Z,1013.51
2018-12-14T10:10:05.244Z,1013.49
2018-12-14T10:11:05.235Z,1013.49
2018-12-14T10:12:05.226Z,1013.48
2018-12-14T10:13:05.216Z,1013.52
2018-12-14T10:14:05.208Z,1013.47
2018-12-14T10:15:05.200Z,1013.48
2018-12-14T10:16:05.191Z,1013.45
2018-12-14T10:17:05.181Z,1013.44
2018-12-14T10:18:05.172Z,1013.44
2018-12-14T10:19:05.162Z,1013.39
2018-12-14T10:20:05.154Z,1013.41
2018-12-14T10:21:05.144Z,1013.41
2018-12-14T10:22:05.135Z,1013.41
2018-12-14T10:23:05.126Z,1013.42
2018-12-14T10:24:05.118Z,1013.43
2018-12-14T10:25:05.109Z,1013.47
2018-12-14T10:26:05.098Z,1013.43
2018-12-14T10:27:05.091Z,1013.41
2018-12-14T10:28:05.079Z,1013.40
2018-12-14T10:29:05.071Z,1013.40
2018-12-14T10:30:05.062Z,1013.38
2018-12-14T10:31:05.052Z,1013.37
2018-12-14T10:32:05.044Z,1013.39
2018-12-14T10:33:05.034Z,1013.40
2018-12-14T10:34:05.024Z,1013.38
2018-12-14T10:35:05.014Z,1013.35
2018-12-14T10:36:05.006Z,1013.38
2018-12-14T10:37:04.998Z,1013.33
2018-12-14T10:38:04.992Z,1013.33
2018-12-14T10:39:04.979Z,1013.30
2018-12-14T10:40:04.970Z,1013.31
2018-12-14T10:41:04.961Z,1013.27
2018-12-14T10:42:04.953Z,1013.31
2018-12-14T10:43:04.943Z,1013.29
2018-12-14T10:44:07.546Z,1013.25
2018-12-14T10:45:04.925Z,1013.23
2018-12-14T10:46:04.917Z,1013.18
2018-12-14T10:47:04.909Z,1013.26
2018-12-14T10:48:04.898Z,1013.22
2018-12-14T10:49:04.889Z,1013.20
2018-12-14T10:50:04.879Z,1013.23
2018-12-14T10:51:04.871Z,1013.16
2018-12-14T10:52:04.863Z,1013.16
2018-12-14T10:53:04.854Z,1013.17
2018-12-14T10:54:04.846Z,1013.19
2018-12-14T10:55:04.837Z,1013.12
2018-12-14T10:56:04.829Z,1013.14
2018-12-14T10:57:04.818Z,1013.09
2018-12-14T10:58:04.811Z,1013.15
2018-12-14T10:59:04.801Z,1013.13
2018-12-14T11:00:04.794Z,1013.16
2018-12-14T11:01:04.786Z,1013.14
2018-12-14T11:02:04.775Z,1013.14
2018-12-14T11:03:04.769Z,1013.14
2018-12-14T11:04:04.760Z,1013.15
2018-12-14T11:05:04.749Z,1013.16
2018-12-14T11:06:04.741Z,1013.15
2018-12-14T11:07:04.732Z,1013.13
2018-12-14T11:08:04.723Z,1013.11
2018-12-14T11:09:04.720Z,1013.06
2018-12-14T11:10:04.705Z,1013.05
2018-12-14T11:11:04.698Z,1013.05
2018-12-14T11:12:04.690Z,1013.11
2018-12-14T11:13:04.679Z,1013.04
2018-12-14T11:14:04.673Z,1013.06
2018-12-14T11:15:04.665Z,1013.08
2018-12-14T11:16:04.656Z,1013.06
2018-12-14T11:17:04.655Z,1013.09
2018-12-14T11:18:04.638Z,1013.05
2018-12-14T11:19:04.630Z,1013.05
2018-12-14T11:20:04.622Z,1013.11
2018-12-14T11:21:04.611Z,1013.12
2018-12-14T11:22:04.603Z,1013.11
2018-12-14T11:23:04.595Z,1013.07
2018-12-14T11:24:04.587Z,1013.14
2018-12-14T11:25:04.577Z,1013.11
2018-12-14T11:26:04.569Z,1013.04
2018-12-14T11:27:04.561Z,1013.06
2018-12-14T11:28:04.553Z,1013.04
2018-12-14T11:29:04.545Z,1013.09
2018-12-14T11:30:04.536Z,1013.09
2018-12-14T11:31:04.531Z,1013.10
2018-12-14T11:32:04.520Z,1013.13
2018-12-14T11:33:04.515Z,1013.09
2018-12-14T11:34:04.504Z,1013.12
2018-12-14T11:35:04.495Z,1013.15
2018-12-14T11:36:04.487Z,1013.09
2018-12-14T11:37:04.478Z,1013.08
2018-12-14T11:38:04.472Z,1013.07
2018-12-14T11:39:04.461Z,1013.12
2018-12-14T11:40:04.453Z,1013.11
2018-12-14T11:41:04.445Z,1013.08
2018-12-14T11:42:04.440Z,1013.08
2018-12-14T11:43:04.432Z,1013.05
2018-12-14T11:44:04.420Z,1013.08
2018-12-14T11:45:04.410Z,1013.05
2018-12-14T11:46:04.403Z,1013.06
2018-12-14T11:47:04.395Z,1013.03
2018-12-14T11:48:04.387Z,1013.05
2018-12-14T11:49:04.377Z,1013.05
2018-12-14T11:50:04.368Z,1013.09
2018-12-14T11:51:04.361Z,1013.02
2018-12-14T11:52:04.354Z,1013.02
2018-12-14T11:53:04.344Z,1013.08
2018-12-14T11:54:04.336Z,1013.04
2018-12-14T11:55:04.330Z,1013.06
2018-12-14T11:56:04.318Z,1013.03
2018-12-14T11:57:04.309Z,1013.04
2018-12-14T11:58:04.301Z,1012.98
2018-12-14T11:59:04.293Z,1013.01
2018-12-14T12:00:04.286Z,1013.01
2018-12-14T12:01:04.277Z,1012.99
2018-12-14T12:02:04.272Z,1013.05
2018-12-14T12:03:04.261Z,1013.01
2018-12-14T12:04:04.252Z,1013.02
2018-12-14T12:05:04.243Z,1013.05